Time;durP1;ratioP1;P1;durP2;ratioP2;P2;SDS_P1;SDS_P2;PMS_P1;PMS_P2;Temp;Humidity;BMP_temperature;BMP_pressure;BME280_temperature;BME280_humidity;BME280_pressure;Samples;Min_cycle;Max_cycle;Signal;HPM_P1;HPM_P2
2022/06/12 00:02:04;;;;;;;11.18;2.22;;;15.10;99.90;;;;;;5038574;28;20653;-82
2022/06/12 00:04:30;;;;;;;7.72;2.00;;;14.00;99.90;;;;;;5021218;28;20128;-82
2022/06/12 00:06:55;;;;;;;7.43;1.92;;;14.80;99.90;;;;;;5037162;28;20492;-83
2022/06/12 00:09:21;;;;;;;6.68;1.70;;;14.00;99.90;;;;;;5039530;28;20045;-82
2022/06/12 00:11:47;;;;;;;6.55;2.17;;;14.00;99.90;;;;;;5022137;28;20493;-82
2022/06/12 00:14:16;;;;;;;7.60;1.48;;;14.00;99.90;;;;;;5022515;28;20489;-82
2022/06/12 00:16:43;;;;;;;9.25;1.70;;;13.40;99.90;;;;;;5034118;28;20453;-82
2022/06/12 00:19:09;;;;;;;6.47;1.85;;;13.90;99.90;;;;;;5040640;28;20443;-82
2022/06/12 00:21:36;;;;;;;11.02;1.58;;;14.70;99.90;;;;;;5036761;28;20144;-82
2022/06/12 00:24:09;;;;;;;6.53;1.50;;;13.80;99.90;;;;;;5023471;28;20095;-82
2022/06/12 00:26:39;;;;;;;4.90;1.33;;;13.80;99.90;;;;;;5031028;28;20038;-81
2022/06/12 00:29:14;;;;;;;7.90;2.75;;;13.80;99.90;;;;;;5016850;28;20137;-82
2022/06/12 00:31:43;;;;;;;6.57;1.95;;;13.70;99.90;;;;;;5036507;28;20159;-80
2022/06/12 00:34:11;;;;;;;8.30;1.80;;;13.70;99.90;;;;;;5038857;28;20117;-80
2022/06/12 00:36:39;;;;;;;9.30;1.77;;;13.70;99.90;;;;;;5048257;28;20045;-80
2022/06/12 00:39:06;;;;;;;6.30;1.70;;;13.60;99.90;;;;;;5020948;28;20045;-82
2022/06/12 00:41:32;;;;;;;6.80;1.75;;;14.70;99.90;;;;;;5026418;28;20488;-82
2022/06/12 00:43:59;;;;;;;9.38;2.05;;;13.60;99.90;;;;;;5035395;28;20052;-81
2022/06/12 00:46:50;;;;;;;6.28;1.63;;;15.00;99.90;;;;;;5043404;28;20037;-80
2022/06/12 00:49:25;;;;;;;10.18;1.70;;;13.50;99.90;;;;;;5035707;28;20477;-82
2022/06/12 00:51:56;;;;;;;6.63;1.33;;;13.50;99.90;;;;;;5022962;28;20448;-81
2022/06/12 00:54:24;;;;;;;4.38;1.67;;;13.50;99.90;;;;;;5035932;28;20077;-81
2022/06/12 00:56:53;;;;;;;10.93;2.20;;;13.50;99.90;;;;;;5039051;28;20068;-82
2022/06/12 00:59:42;;;;;;;4.43;1.55;;;13.50;99.90;;;;;;5037703;28;20128;-82
2022/06/12 01:02:11;;;;;;;3.72;1.10;;;13.50;99.90;;;;;;5006635;28;20412;-82
2022/06/12 01:07:30;;;;;;;7.82;1.45;;;14.50;99.90;;;;;;5038498;28;20084;-81
2022/06/12 01:10:01;;;;;;;5.10;1.10;;;13.50;99.90;;;;;;5034469;28;20045;-82
2022/06/12 01:12:31;;;;;;;6.72;1.40;;;13.50;99.90;;;;;;5043104;28;20052;-81
2022/06/12 01:15:07;;;;;;;10.00;1.40;;;13.50;99.90;;;;;;5017648;28;20532;-81
2022/06/12 01:17:33;;;;;;;4.68;1.23;;;13.50;99.90;;;;;;5042990;28;20061;-80
2022/06/12 01:20:05;;;;;;;4.03;1.45;;;12.30;99.90;;;;;;5017209;28;20045;-81
2022/06/12 01:22:59;;;;;;;7.82;1.65;;;14.50;99.90;;;;;;5028840;28;20521;-81
2022/06/12 01:25:56;;;;;;;7.65;1.58;;;13.50;99.90;;;;;;5023174;28;20041;-80
2022/06/12 01:28:29;;;;;;;11.02;1.80;;;13.40;99.90;;;;;;5042536;28;20080;-81
2022/06/12 01:31:07;;;;;;;7.43;1.53;;;13.40;99.90;;;;;;5031594;28;20057;-82
2022/06/12 01:33:44;;;;;;;8.02;1.52;;;13.40;99.90;;;;;;5024091;28;20462;-82
2022/06/12 01:36:34;;;;;;;8.77;1.77;;;13.30;99.90;;;;;;5043148;28;20041;-82
2022/06/12 01:39:06;;;;;;;9.40;1.98;;;13.30;99.90;;;;;;5036075;28;20069;-81
2022/06/12 01:41:38;;;;;;;4.60;1.20;;;14.30;99.90;;;;;;5045899;28;20045;-81
2022/06/12 01:44:17;;;;;;;6.03;1.73;;;13.30;99.90;;;;;;5037931;28;20033;-81
2022/06/12 01:47:14;;;;;;;6.75;1.90;;;13.30;99.90;;;;;;5027859;28;20084;-81
2022/06/12 01:49:53;;;;;;;6.75;1.90;;;14.90;99.90;;;;;;5022659;28;20067;-81
2022/06/12 01:52:28;;;;;;;8.30;1.30;;;13.30;99.90;;;;;;5025629;28;20045;-81
2022/06/12 01:55:06;;;;;;;7.90;1.42;;;13.20;99.90;;;;;;5028335;28;20431;-81
2022/06/12 01:57:40;;;;;;;10.93;1.85;;;13.20;99.90;;;;;;5039796;28;20052;-81
2022/06/12 02:00:14;;;;;;;5.57;1.23;;;13.80;99.90;;;;;;5024327;28;20047;-82
2022/06/12 02:02:55;;;;;;;7.28;2.17;;;13.30;99.90;;;;;;5041048;28;20049;-81
2022/06/12 02:05:37;;;;;;;8.43;1.42;;;13.20;99.90;;;;;;5041424;28;20039;-82
2022/06/12 02:08:13;;;;;;;6.43;1.80;;;13.20;99.90;;;;;;5023367;28;20041;-82
2022/06/12 02:10:54;;;;;;;10.15;1.85;;;13.20;99.90;;;;;;5023432;28;20045;-82
2022/06/12 02:13:27;;;;;;;11.52;2.10;;;13.20;99.90;;;;;;5023529;28;20397;-81
2022/06/12 02:16:08;;;;;;;7.07;1.40;;;13.20;99.90;;;;;;5026317;28;20091;-80
2022/06/12 02:18:41;;;;;;;8.25;1.67;;;13.20;99.90;;;;;;5045298;28;20041;-79
2022/06/12 02:21:25;;;;;;;9.85;2.42;;;13.20;99.90;;;;;;5047237;28;20052;-81
2022/06/12 02:24:03;;;;;;;7.85;2.08;;;13.20;99.90;;;;;;5038793;28;20044;-82
2022/06/12 02:27:09;;;;;;;13.35;2.17;;;13.20;99.90;;;;;;5040798;28;20052;-81
2022/06/12 02:29:39;;;;;;;7.50;1.40;;;13.10;99.90;;;;;;5041166;28;20045;-80
2022/06/12 02:32:40;;;;;;;5.78;1.40;;;13.10;99.90;;;;;;5020913;28;20041;-81
2022/06/12 02:35:16;;;;;;;5.78;1.77;;;13.10;99.90;;;;;;4984142;28;20045;-80
2022/06/12 02:37:47;;;;;;;6.63;1.30;;;13.10;99.90;;;;;;5038684;28;20099;-81
2022/06/12 02:40:38;;;;;;;9.52;2.42;;;13.10;99.90;;;;;;5040128;28;20507;-81
2022/06/12 02:43:15;;;;;;;8.65;1.60;;;13.30;99.90;;;;;;5004385;28;20040;-81
2022/06/12 02:46:01;;;;;;;7.45;1.98;;;13.00;99.90;;;;;;5036568;28;20127;-77
2022/06/12 02:48:28;;;;;;;8.48;1.92;;;13.00;99.90;;;;;;5041576;28;20032;-81
2022/06/12 02:51:21;;;;;;;8.52;2.03;;;14.00;99.90;;;;;;5038265;28;20084;-81
2022/06/12 02:54:00;;;;;;;6.43;2.08;;;12.90;99.90;;;;;;5037642;28;20047;-80
2022/06/12 02:56:35;;;;;;;9.88;2.22;;;12.90;99.90;;;;;;5028026;28;20451;-82
2022/06/12 02:59:33;;;;;;;10.88;2.13;;;12.90;99.90;;;;;;5033540;28;20034;-81
2022/06/12 03:02:09;;;;;;;8.55;1.88;;;12.80;99.90;;;;;;5008245;28;20381;-81
2022/06/12 03:04:49;;;;;;;9.82;2.60;;;12.90;99.90;;;;;;5039213;28;20039;-81
2022/06/12 03:07:15;;;;;;;11.52;2.08;;;12.80;99.90;;;;;;5024114;28;20041;-82
2022/06/12 03:09:41;;;;;;;9.35;2.17;;;12.80;99.90;;;;;;5039808;28;20091;-79
2022/06/12 03:12:08;;;;;;;8.95;2.28;;;12.80;99.90;;;;;;5039129;28;20040;-82
2022/06/12 03:14:34;;;;;;;10.10;2.53;;;12.80;99.90;;;;;;5039232;28;20559;-81
2022/06/12 03:17:00;;;;;;;7.38;1.80;;;13.50;99.90;;;;;;5022239;28;20047;-81
2022/06/12 03:19:30;;;;;;;6.57;1.67;;;12.80;99.90;;;;;;5022554;28;20070;-82
2022/06/12 03:22:17;;;;;;;6.05;1.90;;;12.80;99.90;;;;;;5038364;28;20076;-81
2022/06/12 03:25:10;;;;;;;14.18;3.05;;;12.80;99.90;;;;;;5025256;28;20040;-81
2022/06/12 03:27:46;;;;;;;8.15;2.20;;;12.70;99.90;;;;;;5034253;28;20041;-82
2022/06/12 03:30:23;;;;;;;7.70;2.00;;;12.80;99.90;;;;;;5024612;28;20053;-82
2022/06/12 03:33:15;;;;;;;8.48;2.60;;;13.10;99.90;;;;;;5038589;28;20041;-83
2022/06/12 03:36:00;;;;;;;5.80;1.38;;;12.70;99.90;;;;;;5037079;28;20041;-81
2022/06/12 03:39:00;;;;;;;6.07;1.95;;;12.70;99.90;;;;;;5038414;28;20044;-84
2022/06/12 03:41:30;;;;;;;7.07;2.15;;;12.70;99.90;;;;;;5025770;28;20045;-82
2022/06/12 03:44:06;;;;;;;9.98;2.10;;;12.70;99.90;;;;;;5036012;28;20527;-82
2022/06/12 03:46:49;;;;;;;10.50;2.25;;;12.70;99.90;;;;;;5038273;28;20067;-81
2022/06/12 03:49:22;;;;;;;8.90;1.65;;;12.60;99.90;;;;;;5037552;28;20124;-82
2022/06/12 03:51:53;;;;;;;8.43;2.10;;;12.60;99.90;;;;;;5021810;28;20076;-82
2022/06/12 03:54:41;;;;;;;8.50;2.05;;;12.60;99.90;;;;;;5040726;28;20107;-80
2022/06/12 04:00:05;;;;;;;8.85;2.03;;;12.70;99.90;;;;;;5041420;28;20049;-79
2022/06/12 04:02:32;;;;;;;7.40;2.22;;;12.70;99.90;;;;;;5026293;28;20064;-80
2022/06/12 04:05:00;;;;;;;12.85;2.38;;;14.20;99.90;;;;;;5034182;28;20390;-82
2022/06/12 04:07:28;;;;;;;9.57;2.30;;;12.60;99.90;;;;;;5019176;28;20044;-81
2022/06/12 04:09:57;;;;;;;10.05;2.22;;;14.40;99.90;;;;;;5041541;28;20099;-82
2022/06/12 04:12:28;;;;;;;8.45;1.92;;;12.70;99.90;;;;;;5023972;28;20476;-83
2022/06/12 04:15:19;;;;;;;9.55;2.42;;;14.00;99.90;;;;;;5038542;28;20040;-82
2022/06/12 04:17:45;;;;;;;9.75;1.85;;;12.70;99.90;;;;;;5026050;28;20082;-83
2022/06/12 04:20:40;;;;;;;10.77;2.15;;;14.00;99.90;;;;;;5039954;28;20060;-82
2022/06/12 04:23:18;;;;;;;11.00;2.28;;;12.70;99.90;;;;;;5026588;28;20432;-80
2022/06/12 04:25:59;;;;;;;8.10;2.10;;;12.70;99.90;;;;;;5018242;28;20791;-82
2022/06/12 04:28:38;;;;;;;10.95;2.30;;;12.80;99.90;;;;;;5042727;28;20077;-83
2022/06/12 04:31:15;;;;;;;11.15;2.63;;;12.80;99.90;;;;;;5024743;28;20041;-82
2022/06/12 04:34:10;;;;;;;10.10;2.20;;;12.80;99.90;;;;;;5035870;28;20280;-82
2022/06/12 04:36:36;;;;;;;15.80;2.03;;;12.80;99.90;;;;;;5023546;28;20047;-78
2022/06/12 04:39:03;;;;;;;7.82;1.85;;;12.80;99.90;;;;;;5039643;28;20100;-81
2022/06/12 04:41:35;;;;;;;7.82;2.08;;;12.80;99.90;;;;;;5027510;28;20033;-82
2022/06/12 04:44:03;;;;;;;10.50;2.10;;;12.90;99.90;;;;;;5021784;28;20037;-82
2022/06/12 04:46:29;;;;;;;4.47;1.88;;;14.20;99.90;;;;;;5023400;28;20040;-83
2022/06/12 04:48:56;;;;;;;10.13;1.73;;;12.90;99.90;;;;;;5022912;28;20067;-78
2022/06/12 04:51:23;;;;;;;9.65;2.50;;;14.20;99.90;;;;;;5038923;28;20049;-81
2022/06/12 04:53:49;;;;;;;14.15;2.72;;;12.90;99.90;;;;;;5037708;28;20037;-81
2022/06/12 04:56:17;;;;;;;13.23;3.03;;;12.90;99.90;;;;;;5039249;28;20037;-81
2022/06/12 04:58:44;;;;;;;10.35;2.53;;;12.90;99.90;;;;;;5042160;28;20056;-82
2022/06/12 05:01:10;;;;;;;11.20;2.55;;;12.90;99.90;;;;;;5043764;28;20443;-80
2022/06/12 05:03:37;;;;;;;11.55;2.17;;;14.20;99.90;;;;;;5028332;28;20377;-79
2022/06/12 05:06:04;;;;;;;10.40;2.25;;;14.20;99.90;;;;;;5043016;28;20132;-82
2022/06/12 05:08:31;;;;;;;10.32;2.15;;;13.00;99.90;;;;;;5022090;28;20320;-81
2022/06/12 05:10:57;;;;;;;11.45;2.35;;;13.00;99.90;;;;;;5045121;28;20041;-80
2022/06/12 05:13:23;;;;;;;14.98;3.05;;;13.10;99.90;;;;;;5025220;28;20132;-82
2022/06/12 05:15:48;;;;;;;9.95;2.40;;;14.40;99.90;;;;;;5047048;28;20540;-81
2022/06/12 05:18:16;;;;;;;13.63;2.40;;;13.20;99.90;;;;;;5038387;28;20135;-80
2022/06/12 05:20:43;;;;;;;10.88;2.45;;;13.20;99.90;;;;;;5021982;28;20033;-84
2022/06/12 05:23:09;;;;;;;10.88;2.85;;;13.20;99.90;;;;;;5028128;28;20042;-81
2022/06/12 05:25:36;;;;;;;12.10;2.63;;;13.20;99.90;;;;;;5033796;28;20037;-82
2022/06/12 05:28:03;;;;;;;10.65;3.13;;;14.50;99.90;;;;;;5047603;28;20088;-79
2022/06/12 05:30:32;;;;;;;10.75;3.15;;;13.30;99.90;;;;;;5023085;28;20042;-83
2022/06/12 05:32:59;;;;;;;16.17;4.60;;;13.40;99.90;;;;;;5045471;28;20092;-82
2022/06/12 05:35:26;;;;;;;20.08;4.97;;;13.40;99.90;;;;;;5046077;28;20080;-82
2022/06/12 05:37:52;;;;;;;17.10;3.83;;;13.50;99.90;;;;;;5017042;28;20041;-82
2022/06/12 05:40:23;;;;;;;13.38;3.13;;;12.90;99.90;;;;;;5038886;28;20079;-81
2022/06/12 05:42:49;;;;;;;14.93;3.10;;;13.50;99.90;;;;;;5014010;28;20041;-82
2022/06/12 05:45:19;;;;;;;18.02;4.00;;;13.60;99.90;;;;;;5026171;28;20041;-81
2022/06/12 05:47:52;;;;;;;9.55;2.67;;;13.60;99.90;;;;;;5048689;28;20052;-82
2022/06/12 05:50:20;;;;;;;16.77;3.85;;;13.40;99.90;;;;;;5020877;28;20044;-81
2022/06/12 05:52:46;;;;;;;18.50;4.68;;;14.80;99.90;;;;;;5025570;28;20045;-83
2022/06/12 05:55:12;;;;;;;11.93;4.13;;;13.80;99.90;;;;;;5041374;28;20044;-84
2022/06/12 05:57:38;;;;;;;12.82;3.85;;;14.50;99.90;;;;;;5046577;28;20366;-82
2022/06/12 06:00:08;;;;;;;13.70;4.03;;;14.00;99.90;;;;;;5040993;28;20048;-81
2022/06/12 06:02:34;;;;;;;17.25;4.13;;;14.00;99.90;;;;;;5043691;28;20033;-79
2022/06/12 06:05:02;;;;;;;23.23;4.65;;;14.10;99.90;;;;;;5024895;28;20059;-81
2022/06/12 06:07:28;;;;;;;18.08;4.60;;;14.10;99.90;;;;;;5029455;28;20041;-82
2022/06/12 06:09:55;;;;;;;19.50;4.75;;;15.70;99.90;;;;;;5039113;28;20046;-81
2022/06/12 06:12:20;;;;;;;21.65;4.95;;;14.30;99.90;;;;;;5042129;28;20151;-81
2022/06/12 06:14:49;;;;;;;25.63;4.55;;;15.00;99.90;;;;;;5016065;28;20046;-82
2022/06/12 06:17:15;;;;;;;18.80;4.75;;;14.30;99.90;;;;;;5037903;28;20542;-80
2022/06/12 06:19:41;;;;;;;20.83;4.75;;;14.40;99.90;;;;;;5041641;28;20149;-80
2022/06/12 06:22:22;;;;;;;20.75;4.70;;;14.40;99.90;;;;;;5025302;28;20029;-81
2022/06/12 06:24:48;;;;;;;19.83;4.43;;;13.20;99.90;;;;;;5049236;28;20558;-80
2022/06/12 06:27:15;;;;;;;18.70;5.20;;;14.50;99.90;;;;;;5037817;28;20033;-82
2022/06/12 06:29:42;;;;;;;20.33;5.43;;;15.70;99.90;;;;;;5038195;28;20056;-79
2022/06/12 06:32:11;;;;;;;15.98;4.47;;;14.70;99.90;;;;;;5027286;28;20120;-82
2022/06/12 06:34:39;;;;;;;21.35;4.82;;;14.70;99.90;;;;;;5020669;28;20048;-82
2022/06/12 06:37:07;;;;;;;25.60;5.97;;;14.80;99.90;;;;;;5027517;28;20076;-80
2022/06/12 06:39:33;;;;;;;23.30;6.60;;;14.90;99.90;;;;;;5037703;28;20562;-81
2022/06/12 06:41:59;;;;;;;25.05;5.53;;;15.00;99.90;;;;;;5043554;28;20132;-80
2022/06/12 06:47:14;;;;;;;21.27;5.20;;;15.40;99.90;;;;;;5045766;28;20045;-79
2022/06/12 06:49:40;;;;;;;21.33;5.97;;;15.20;99.90;;;;;;5036849;28;20037;-82
2022/06/12 06:52:06;;;;;;;20.67;5.18;;;16.50;99.90;;;;;;5023012;28;20038;-81
2022/06/12 06:54:35;;;;;;;33.90;6.10;;;15.30;99.90;;;;;;5042617;28;20048;-83
2022/06/12 06:57:00;;;;;;;20.67;6.15;;;15.50;99.90;;;;;;5039004;28;20084;-82
2022/06/12 06:59:27;;;;;;;25.80;6.63;;;15.40;99.90;;;;;;5027508;28;20073;-82
2022/06/12 07:01:52;;;;;;;23.58;5.60;;;16.20;99.90;;;;;;5020297;28;20100;-81
2022/06/12 07:04:18;;;;;;;25.33;6.28;;;15.60;99.90;;;;;;5043955;28;20492;-83
2022/06/12 07:06:44;;;;;;;23.42;5.03;;;16.50;99.90;;;;;;5037079;28;20064;-78
2022/06/12 07:09:10;;;;;;;21.88;5.78;;;17.00;99.90;;;;;;5045276;28;20045;-82
2022/06/12 07:11:36;;;;;;;28.58;6.40;;;16.70;99.90;;;;;;5037463;28;20065;-83
2022/06/12 07:14:02;;;;;;;27.73;6.32;;;16.40;99.90;;;;;;5039587;28;20080;-82
2022/06/12 07:16:30;;;;;;;19.88;4.85;;;15.90;99.90;;;;;;5043748;28;20037;-83
2022/06/12 07:18:57;;;;;;;18.73;5.55;;;15.90;99.90;;;;;;5020083;28;20096;-82
2022/06/12 07:21:23;;;;;;;22.75;4.43;;;16.10;99.90;;;;;;5032053;28;20041;-81
2022/06/12 07:23:49;;;;;;;19.15;4.35;;;16.80;99.90;;;;;;5022844;28;20041;-82
2022/06/12 07:26:28;;;;;;;18.17;4.43;;;16.10;99.90;;;;;;5016974;28;20045;-81
2022/06/12 07:28:54;;;;;;;23.63;5.00;;;16.20;99.90;;;;;;5039447;28;20060;-80
2022/06/12 07:31:21;;;;;;;26.15;5.75;;;16.40;99.90;;;;;;5044784;28;20396;-80
2022/06/12 07:33:46;;;;;;;14.68;3.83;;;16.40;99.90;;;;;;5041991;28;20094;-79
2022/06/12 07:36:14;;;;;;;21.80;4.57;;;16.40;99.90;;;;;;5020089;28;20045;-78
2022/06/12 07:38:57;;;;;;;24.75;4.25;;;16.50;99.90;;;;;;5041518;28;20090;-80
2022/06/12 07:41:24;;;;;;;17.15;4.07;;;16.60;99.90;;;;;;5021580;28;20040;-82
2022/06/12 07:43:50;;;;;;;18.75;4.05;;;16.90;99.90;;;;;;5022605;28;20048;-80
2022/06/12 07:46:18;;;;;;;20.23;3.92;;;16.70;99.90;;;;;;5038818;28;20053;-82
2022/06/12 07:48:45;;;;;;;25.95;4.72;;;16.80;99.90;;;;;;5029185;28;20108;-83
2022/06/12 07:51:18;;;;;;;16.58;3.92;;;17.00;99.90;;;;;;5021479;28;20053;-82
2022/06/12 07:53:51;;;;;;;20.58;4.22;;;16.90;99.90;;;;;;5026510;28;20120;-83
2022/06/12 07:56:20;;;;;;;18.33;3.87;;;17.00;99.90;;;;;;5039823;28;20655;-84
2022/06/12 07:58:46;;;;;;;22.10;5.43;;;17.20;99.90;;;;;;5022015;28;20036;-80
2022/06/12 08:01:16;;;;;;;20.55;4.05;;;18.30;99.90;;;;;;5037920;28;20747;-82
2022/06/12 08:03:42;;;;;;;18.25;3.70;;;17.20;99.90;;;;;;5034133;28;20166;-82
2022/06/12 08:06:08;;;;;;;18.00;3.40;;;17.40;99.90;;;;;;5021814;28;20057;-81
2022/06/12 08:08:36;;;;;;;17.60;4.15;;;17.30;99.90;;;;;;5038205;28;20098;-80
2022/06/12 08:11:02;;;;;;;15.57;3.13;;;17.40;99.90;;;;;;5040496;28;20033;-82
2022/06/12 08:13:28;;;;;;;19.23;3.67;;;17.40;99.90;;;;;;5037785;28;20400;-81
2022/06/12 08:15:55;;;;;;;17.30;3.83;;;17.40;99.90;;;;;;5022558;28;20044;-81
2022/06/12 08:18:22;;;;;;;15.18;3.60;;;17.40;99.90;;;;;;5020368;28;20403;-80
2022/06/12 08:20:54;;;;;;;16.23;3.70;;;17.40;99.90;;;;;;5033348;28;20078;-81
2022/06/12 08:23:33;;;;;;;12.30;3.25;;;18.80;99.90;;;;;;5027857;28;20038;-79
2022/06/12 08:26:10;;;;;;;16.38;3.97;;;17.60;99.90;;;;;;5031148;28;20094;-80
2022/06/12 08:28:49;;;;;;;18.08;3.80;;;17.60;99.90;;;;;;5033966;28;20045;-80
2022/06/12 08:31:19;;;;;;;19.35;5.57;;;17.50;99.90;;;;;;5026606;28;20049;-80
2022/06/12 08:33:47;;;;;;;20.95;4.20;;;17.60;99.90;;;;;;5021870;28;20136;-78
2022/06/12 08:36:15;;;;;;;16.75;4.07;;;17.70;99.90;;;;;;5035845;28;20049;-80
2022/06/12 08:38:41;;;;;;;19.08;3.90;;;18.30;99.90;;;;;;5039300;28;20480;-78
2022/06/12 08:41:31;;;;;;;14.95;3.38;;;17.60;99.90;;;;;;5041564;28;20049;-80
2022/06/12 08:44:18;;;;;;;16.00;4.30;;;17.50;99.90;;;;;;5017197;28;20048;-78
2022/06/12 08:47:11;;;;;;;21.50;4.32;;;17.50;99.90;;;;;;5043187;28;20045;-81
2022/06/12 08:50:14;;;;;;;16.33;4.80;;;17.50;99.90;;;;;;5031028;28;20033;-79
2022/06/12 08:53:22;;;;;;;14.30;3.20;;;17.60;99.90;;;;;;5035983;28;20495;-80
2022/06/12 08:55:50;;;;;;;15.48;4.28;;;17.80;99.90;;;;;;5001057;28;20049;-81
2022/06/12 08:58:37;;;;;;;16.63;3.75;;;17.90;99.90;;;;;;5022628;28;20053;-80
2022/06/12 09:01:03;;;;;;;13.45;2.97;;;18.10;99.90;;;;;;5022397;28;20041;-81
2022/06/12 09:03:36;;;;;;;10.13;2.30;;;19.10;99.90;;;;;;5022255;28;20045;-79
2022/06/12 09:06:37;;;;;;;13.43;3.45;;;18.40;99.90;;;;;;5038926;28;20056;-81
2022/06/12 09:09:26;;;;;;;15.90;3.72;;;18.50;99.90;;;;;;5010491;28;20049;-80
2022/06/12 09:12:22;;;;;;;15.75;2.95;;;18.70;99.90;;;;;;5030039;28;20084;-80
2022/06/12 09:15:35;;;;;;;13.07;3.05;;;18.80;99.90;;;;;;5008570;28;20065;-79
2022/06/12 09:18:19;;;;;;;14.00;2.95;;;18.90;99.90;;;;;;4936028;28;20055;-80
2022/06/12 09:20:56;;;;;;;14.18;2.38;;;18.90;99.90;;;;;;4963683;28;20074;-80
2022/06/12 09:23:31;;;;;;;9.00;2.40;;;19.00;99.90;;;;;;5020527;28;20048;-79
2022/06/12 09:26:29;;;;;;;11.65;2.25;;;18.80;99.90;;;;;;5019918;28;20087;-78
2022/06/12 09:29:26;;;;;;;15.73;2.80;;;18.80;99.90;;;;;;5023235;28;20103;-78
2022/06/12 09:32:03;;;;;;;10.52;2.40;;;18.80;99.90;;;;;;5027860;28;20037;-79
2022/06/12 09:34:46;;;;;;;12.90;2.83;;;18.90;99.90;;;;;;5022734;28;20040;-87
2022/06/12 09:40:25;;;;;;;8.40;1.70;;;19.00;99.90;;;;;;5027275;28;20042;-82
2022/06/12 09:43:02;;;;;;;12.15;2.20;;;19.10;99.90;;;;;;5011833;28;20045;-82
2022/06/12 09:46:01;;;;;;;8.10;2.03;;;19.20;99.90;;;;;;5031389;28;20525;-80
2022/06/12 09:48:48;;;;;;;9.25;1.75;;;19.30;99.90;;;;;;5036412;28;20033;-85
2022/06/12 09:51:34;;;;;;;6.95;1.55;;;19.40;99.90;;;;;;5036824;28;20123;-90
2022/06/12 09:54:06;;;;;;;10.07;2.45;;;19.50;99.90;;;;;;5021954;28;20034;-78
2022/06/12 09:56:40;;;;;;;4.28;1.45;;;19.30;99.90;;;;;;5027364;28;20401;-81
2022/06/12 09:59:11;;;;;;;9.20;1.55;;;19.40;99.90;;;;;;5025156;28;20049;-83
2022/06/12 10:01:43;;;;;;;6.10;1.60;;;19.50;99.90;;;;;;5028647;28;20045;-82
2022/06/12 10:04:22;;;;;;;6.82;1.92;;;19.50;99.90;;;;;;5014366;28;20041;-82
2022/06/12 10:06:58;;;;;;;5.18;1.83;;;19.50;99.90;;;;;;5020744;28;20497;-81
2022/06/12 10:09:30;;;;;;;8.13;1.58;;;19.60;99.90;;;;;;5022972;28;20037;-81
2022/06/12 10:12:05;;;;;;;6.20;1.20;;;19.60;99.90;;;;;;5008574;28;20052;-78
2022/06/12 10:14:52;;;;;;;5.60;1.40;;;19.60;99.90;;;;;;5025119;28;20052;-85
2022/06/12 10:17:33;;;;;;;5.28;1.50;;;19.80;99.90;;;;;;5024598;28;20050;-83
2022/06/12 10:20:12;;;;;;;6.13;1.52;;;19.80;99.90;;;;;;5013975;28;20577;-81
2022/06/12 10:22:44;;;;;;;5.00;1.38;;;19.90;99.90;;;;;;5043906;28;20049;-81
2022/06/12 10:25:36;;;;;;;5.93;1.20;;;19.90;99.90;;;;;;5030498;28;20045;-89
2022/06/12 10:28:23;;;;;;;4.07;1.17;;;19.80;99.90;;;;;;5034811;28;20045;-85
2022/06/12 10:31:18;;;;;;;8.23;1.70;;;19.80;99.90;;;;;;5018135;28;20517;-81
2022/06/12 10:33:54;;;;;;;8.35;1.65;;;19.80;99.90;;;;;;5030800;28;20065;-77
2022/06/12 10:36:27;;;;;;;9.48;1.67;;;20.00;99.90;;;;;;5016547;28;20460;-85
2022/06/12 10:39:14;;;;;;;5.65;1.70;;;20.00;99.90;;;;;;5028482;28;20094;-85
2022/06/12 10:41:51;;;;;;;5.63;1.30;;;20.00;99.90;;;;;;5009968;28;20055;-82
2022/06/12 10:44:41;;;;;;;4.68;1.10;;;20.00;99.90;;;;;;5037624;28;20033;-83
2022/06/12 10:47:28;;;;;;;5.95;1.40;;;19.80;99.90;;;;;;5037265;28;20037;-81
2022/06/12 10:50:13;;;;;;;4.70;1.40;;;19.80;99.90;;;;;;5032693;28;20042;-83
2022/06/12 10:53:00;;;;;;;5.28;1.23;;;19.80;99.90;;;;;;5043758;28;20034;-78
2022/06/12 10:55:51;;;;;;;4.45;1.15;;;19.90;99.90;;;;;;5028891;28;20041;-87
2022/06/12 10:59:09;;;;;;;5.32;1.10;;;20.00;99.90;;;;;;5024964;28;20037;-84
2022/06/12 11:01:57;;;;;;;7.28;1.40;;;20.20;99.90;;;;;;5041976;28;20045;-85
2022/06/12 11:04:47;;;;;;;8.27;1.80;;;20.20;99.90;;;;;;5035138;28;20484;-84
2022/06/12 11:07:33;;;;;;;10.23;2.42;;;20.00;99.90;;;;;;5017229;28;20088;-86
2022/06/12 11:10:17;;;;;;;7.63;1.83;;;19.90;99.90;;;;;;5036060;28;20038;-83
2022/06/12 11:12:57;;;;;;;10.60;1.85;;;19.80;99.90;;;;;;5036781;28;20045;-86
2022/06/12 11:15:43;;;;;;;4.60;1.10;;;19.80;99.90;;;;;;5036434;28;20736;-85
2022/06/12 11:18:24;;;;;;;2.88;0.57;;;19.90;99.90;;;;;;5031360;28;20049;-84
2022/06/12 11:21:00;;;;;;;4.18;1.08;;;20.00;99.90;;;;;;5038632;28;20072;-87
2022/06/12 11:23:44;;;;;;;4.45;1.33;;;20.20;98.90;;;;;;5024120;28;20041;-84
2022/06/12 11:26:36;;;;;;;7.47;2.30;;;20.30;98.50;;;;;;5022960;28;20052;-84
2022/06/12 11:29:32;;;;;;;5.53;1.48;;;20.40;99.90;;;;;;5013290;28;20041;-85
2022/06/12 11:32:15;;;;;;;4.70;1.50;;;20.50;99.90;;;;;;5034528;28;20092;-86
2022/06/12 11:35:24;;;;;;;6.28;1.58;;;20.60;99.90;;;;;;5045418;28;20068;-79
2022/06/12 11:37:58;;;;;;;11.73;1.85;;;20.60;99.30;;;;;;5005575;28;20060;-80
2022/06/12 11:40:49;;;;;;;8.70;1.92;;;20.50;99.90;;;;;;5038490;28;20148;-84
2022/06/12 11:43:26;;;;;;;4.78;1.45;;;20.50;99.80;;;;;;5036839;28;20409;-84
2022/06/12 11:46:13;;;;;;;7.88;1.65;;;20.40;98.80;;;;;;5036568;28;20412;-85
2022/06/12 11:48:40;;;;;;;6.03;1.70;;;20.30;99.20;;;;;;5043446;28;20107;-83
2022/06/12 11:51:21;;;;;;;6.57;1.63;;;20.30;99.20;;;;;;5040894;28;20044;-85
2022/06/12 11:54:17;;;;;;;8.57;1.85;;;20.40;99.60;;;;;;5037734;28;21217;-87
2022/06/12 11:57:08;;;;;;;5.28;1.23;;;20.50;97.80;;;;;;5041949;28;20049;-84
2022/06/12 11:59:56;;;;;;;8.00;1.75;;;20.60;98.10;;;;;;5034386;28;20591;-88
2022/06/12 12:03:00;;;;;;;6.93;1.85;;;20.70;97.80;;;;;;5025865;28;20485;-84
2022/06/12 12:05:56;;;;;;;5.72;1.67;;;20.80;98.70;;;;;;5031722;28;20497;-84
2022/06/12 12:08:55;;;;;;;5.32;1.30;;;20.80;98.60;;;;;;5027242;28;20052;-86
2022/06/12 12:11:32;;;;;;;9.43;1.85;;;20.80;99.10;;;;;;5019945;28;20040;-88
2022/06/12 12:14:02;;;;;;;6.30;1.30;;;20.90;99.10;;;;;;5036907;28;20030;-88
2022/06/12 12:16:59;;;;;;;7.55;1.80;;;21.00;98.30;;;;;;5019730;28;20076;-83
2022/06/12 12:19:31;;;;;;;6.03;1.70;;;21.10;98.40;;;;;;5032498;28;20053;-83
2022/06/12 12:22:27;;;;;;;6.32;1.23;;;21.10;96.40;;;;;;5041252;28;20133;-85
2022/06/12 12:25:07;;;;;;;6.18;1.58;;;21.20;95.90;;;;;;5006240;28;20072;-86
2022/06/12 12:27:40;;;;;;;8.45;1.23;;;21.10;95.80;;;;;;5039978;28;20091;-88
2022/06/12 12:30:22;;;;;;;6.60;1.30;;;21.00;94.90;;;;;;5041798;28;20037;-87
2022/06/12 12:32:54;;;;;;;7.25;1.67;;;20.90;94.70;;;;;;5037990;28;20048;-84
2022/06/12 12:41:13;;;;;;;8.13;1.30;;;20.60;95.10;;;;;;5041401;28;20060;-84
2022/06/12 12:43:56;;;;;;;6.95;1.23;;;20.30;95.70;;;;;;5032233;28;20033;-88
2022/06/12 12:46:25;;;;;;;5.78;1.83;;;20.60;96.30;;;;;;5023522;28;20041;-85
2022/06/12 12:48:55;;;;;;;4.15;1.45;;;20.70;96.30;;;;;;5037024;28;20044;-86
2022/06/12 12:51:33;;;;;;;7.15;1.70;;;20.70;95.10;;;;;;5041857;28;20055;-85
2022/06/12 12:54:18;;;;;;;7.72;1.73;;;20.60;95.10;;;;;;5021852;28;20053;-85
2022/06/12 12:56:55;;;;;;;8.70;1.80;;;20.60;95.30;;;;;;5039432;28;20048;-87
2022/06/12 12:59:34;;;;;;;5.70;1.67;;;20.70;95.50;;;;;;5038982;28;20041;-80
2022/06/12 13:02:12;;;;;;;5.70;1.25;;;20.20;96.00;;;;;;5019684;28;20397;-83
2022/06/12 13:04:38;;;;;;;4.95;1.30;;;20.90;96.20;;;;;;5041485;28;20130;-85
2022/06/12 13:07:07;;;;;;;4.85;1.23;;;21.00;95.30;;;;;;5019330;28;20115;-88
2022/06/12 13:09:50;;;;;;;9.82;1.60;;;21.20;94.60;;;;;;5024933;28;20175;-84
2022/06/12 13:12:31;;;;;;;6.75;1.30;;;21.30;95.10;;;;;;5033696;28;20044;-87
2022/06/12 13:15:00;;;;;;;4.43;1.38;;;21.20;95.10;;;;;;5044639;28;20052;-88
2022/06/12 13:17:50;;;;;;;4.40;1.30;;;21.10;95.50;;;;;;5039845;28;20056;-84
2022/06/12 13:20:33;;;;;;;7.47;1.27;;;21.20;95.00;;;;;;5014354;28;20041;-81
2022/06/12 13:23:15;;;;;;;10.57;1.77;;;21.30;95.30;;;;;;5023175;28;20038;-81
2022/06/12 13:25:45;;;;;;;5.38;1.98;;;21.00;96.10;;;;;;5040575;28;20041;-77
2022/06/12 13:28:23;;;;;;;4.78;1.75;;;21.00;96.20;;;;;;5029427;28;20094;-77
2022/06/12 13:30:49;;;;;;;7.47;2.25;;;21.10;96.20;;;;;;5016439;28;20060;-76
2022/06/12 13:33:27;;;;;;;5.45;1.70;;;20.80;95.70;;;;;;5031203;28;20065;-76
2022/06/12 13:35:58;;;;;;;7.22;2.03;;;20.80;97.00;;;;;;5028127;28;20096;-82
2022/06/12 13:38:49;;;;;;;4.05;1.27;;;20.60;97.30;;;;;;5032429;28;20726;-77
2022/06/12 13:41:42;;;;;;;6.25;1.88;;;20.50;97.80;;;;;;5006877;28;20050;-80
2022/06/12 13:44:30;;;;;;;11.25;2.25;;;20.50;98.40;;;;;;5035941;28;20167;-87
2022/06/12 13:46:59;;;;;;;8.35;1.88;;;20.00;98.50;;;;;;5021466;28;20548;-84